sensor_id;sensor_type;location;lat;lon;timestamp;pressure;altitude;pressure_sealevel;temperature;humidity
41467;BME280;27205;53.690;19.948;2023-02-18T00:00:17;98376.59;;;6.53;88.66
41467;BME280;27205;53.690;19.948;2023-02-18T00:05:41;98381.75;;;6.52;88.35
41467;BME280;27205;53.690;19.948;2023-02-18T00:10:44;98393.11;;;6.50;88.09
41467;BME280;27205;53.690;19.948;2023-02-18T00:15:48;98387.15;;;6.50;87.86
41467;BME280;27205;53.690;19.948;2023-02-18T00:20:51;98396.61;;;6.51;86.60
41467;BME280;27205;53.690;19.948;2023-02-18T00:26:07;98396.42;;;6.57;86.50
41467;BME280;27205;53.690;19.948;2023-02-18T00:31:15;98390.02;;;6.61;85.64
41467;BME280;27205;53.690;19.948;2023-02-18T00:36:20;98390.16;;;6.68;84.75
41467;BME280;27205;53.690;19.948;2023-02-18T00:41:26;98405.89;;;6.75;83.97
41467;BME280;27205;53.690;19.948;2023-02-18T00:46:30;98400.29;;;6.80;83.31
41467;BME280;27205;53.690;19.948;2023-02-18T00:51:35;98402.65;;;6.82;82.05
41467;BME280;27205;53.690;19.948;2023-02-18T00:56:38;98412.77;;;6.72;81.26
41467;BME280;27205;53.690;19.948;2023-02-18T01:01:42;98408.16;;;6.60;81.02
41467;BME280;27205;53.690;19.948;2023-02-18T01:06:46;98412.27;;;6.51;80.83
41467;BME280;27205;53.690;19.948;2023-02-18T01:11:49;98410.10;;;6.60;78.71
41467;BME280;27205;53.690;19.948;2023-02-18T01:16:53;98405.69;;;6.74;76.73
41467;BME280;27205;53.690;19.948;2023-02-18T01:21:57;98416.67;;;6.86;75.31
41467;BME280;27205;53.690;19.948;2023-02-18T01:27:01;98415.22;;;6.99;74.53
41467;BME280;27205;53.690;19.948;2023-02-18T01:32:04;98418.44;;;7.07;74.63
41467;BME280;27205;53.690;19.948;2023-02-18T01:37:08;98418.54;;;7.08;75.00
41467;BME280;27205;53.690;19.948;2023-02-18T01:42:20;98423.41;;;7.02;73.81
41467;BME280;27205;53.690;19.948;2023-02-18T01:47:24;98431.27;;;7.02;74.45
41467;BME280;27205;53.690;19.948;2023-02-18T01:52:27;98440.32;;;7.01;74.06
41467;BME280;27205;53.690;19.948;2023-02-18T01:57:36;98431.93;;;6.99;74.04
41467;BME280;27205;53.690;19.948;2023-02-18T02:02:43;98424.42;;;6.95;73.17
41467;BME280;27205;53.690;19.948;2023-02-18T02:07:50;98428.89;;;7.01;73.36
41467;BME280;27205;53.690;19.948;2023-02-18T02:24:07;98418.84;;;7.17;71.35
41467;BME280;27205;53.690;19.948;2023-02-18T02:55:52;98468.27;;;7.20;67.58
41467;BME280;27205;53.690;19.948;2023-02-18T03:12:07;98492.27;;;7.14;68.45
41467;BME280;27205;53.690;19.948;2023-02-18T03:17:26;98484.65;;;7.09;67.35
41467;BME280;27205;53.690;19.948;2023-02-18T03:22:34;98493.12;;;7.10;67.51
41467;BME280;27205;53.690;19.948;2023-02-18T03:28:08;98514.30;;;7.08;67.61
41467;BME280;27205;53.690;19.948;2023-02-18T03:33:17;98508.11;;;7.11;66.53
41467;BME280;27205;53.690;19.948;2023-02-18T03:38:43;98496.16;;;7.10;66.21
41467;BME280;27205;53.690;19.948;2023-02-18T03:43:52;98510.20;;;7.07;65.99
41467;BME280;27205;53.690;19.948;2023-02-18T03:48:57;98524.31;;;7.00;64.12
41467;BME280;27205;53.690;19.948;2023-02-18T03:54:01;98528.27;;;7.01;63.79
41467;BME280;27205;53.690;19.948;2023-02-18T03:59:04;98526.40;;;7.00;64.02
41467;BME280;27205;53.690;19.948;2023-02-18T04:04:08;98530.20;;;6.98;64.02
41467;BME280;27205;53.690;19.948;2023-02-18T04:09:12;98540.36;;;6.94;63.95
41467;BME280;27205;53.690;19.948;2023-02-18T04:14:15;98545.11;;;6.89;63.60
41467;BME280;27205;53.690;19.948;2023-02-18T04:19:19;98538.30;;;6.84;63.48
41467;BME280;27205;53.690;19.948;2023-02-18T04:24:23;98549.55;;;6.81;63.55
41467;BME280;27205;53.690;19.948;2023-02-18T04:29:26;98557.83;;;6.80;63.67
41467;BME280;27205;53.690;19.948;2023-02-18T04:34:30;98545.81;;;6.77;63.66
41467;BME280;27205;53.690;19.948;2023-02-18T04:39:33;98555.47;;;6.78;64.19
41467;BME280;27205;53.690;19.948;2023-02-18T04:44:37;98544.30;;;6.76;63.72
41467;BME280;27205;53.690;19.948;2023-02-18T04:49:41;98545.31;;;6.77;63.86
41467;BME280;27205;53.690;19.948;2023-02-18T04:54:44;98562.55;;;6.76;63.96
41467;BME280;27205;53.690;19.948;2023-02-18T04:59:48;98572.46;;;6.70;63.99
41467;BME280;27205;53.690;19.948;2023-02-18T05:04:51;98567.46;;;6.64;64.28
41467;BME280;27205;53.690;19.948;2023-02-18T05:09:55;98572.20;;;6.59;64.61
41467;BME280;27205;53.690;19.948;2023-02-18T05:14:58;98586.35;;;6.57;64.54
41467;BME280;27205;53.690;19.948;2023-02-18T05:20:04;98572.36;;;6.56;64.71
41467;BME280;27205;53.690;19.948;2023-02-18T05:25:11;98586.38;;;6.52;64.87
41467;BME280;27205;53.690;19.948;2023-02-18T05:30:15;98612.67;;;6.48;65.64
41467;BME280;27205;53.690;19.948;2023-02-18T05:35:19;98622.89;;;6.19;67.47
41467;BME280;27205;53.690;19.948;2023-02-18T05:40:22;98626.73;;;6.06;67.55
41467;BME280;27205;53.690;19.948;2023-02-18T05:45:26;98651.30;;;6.07;67.18
41467;BME280;27205;53.690;19.948;2023-02-18T05:50:30;98637.54;;;6.15;66.98
41467;BME280;27205;53.690;19.948;2023-02-18T05:55:33;98661.45;;;6.24;66.40
41467;BME280;27205;53.690;19.948;2023-02-18T06:00:41;98632.69;;;6.31;66.23
41467;BME280;27205;53.690;19.948;2023-02-18T06:05:48;98644.25;;;6.36;65.92
41467;BME280;27205;53.690;19.948;2023-02-18T06:10:52;98667.20;;;6.38;65.59
41467;BME280;27205;53.690;19.948;2023-02-18T06:15:56;98656.53;;;6.42;65.86
41467;BME280;27205;53.690;19.948;2023-02-18T06:20:59;98671.15;;;6.42;66.00
41467;BME280;27205;53.690;19.948;2023-02-18T06:26:08;98680.59;;;6.42;65.87
41467;BME280;27205;53.690;19.948;2023-02-18T06:31:12;98688.02;;;6.43;65.77
41467;BME280;27205;53.690;19.948;2023-02-18T06:36:16;98686.94;;;6.44;65.78
41467;BME280;27205;53.690;19.948;2023-02-18T06:41:19;98710.27;;;6.46;65.68
41467;BME280;27205;53.690;19.948;2023-02-18T06:46:23;98703.07;;;6.50;65.66
41467;BME280;27205;53.690;19.948;2023-02-18T06:51:27;98694.58;;;6.52;65.77
41467;BME280;27205;53.690;19.948;2023-02-18T06:56:30;98710.02;;;6.52;65.81
41467;BME280;27205;53.690;19.948;2023-02-18T07:01:34;98713.98;;;6.55;65.50
41467;BME280;27205;53.690;19.948;2023-02-18T07:06:37;98715.53;;;6.58;65.11
41467;BME280;27205;53.690;19.948;2023-02-18T07:11:41;98727.25;;;6.66;64.99
41467;BME280;27205;53.690;19.948;2023-02-18T07:16:44;98717.04;;;6.74;65.15
41467;BME280;27205;53.690;19.948;2023-02-18T07:21:48;98727.36;;;6.78;64.66
41467;BME280;27205;53.690;19.948;2023-02-18T07:26:51;98719.28;;;6.80;64.36
41467;BME280;27205;53.690;19.948;2023-02-18T07:31:55;98732.80;;;6.85;64.25
41467;BME280;27205;53.690;19.948;2023-02-18T07:36:59;98742.69;;;6.93;64.05
41467;BME280;27205;53.690;19.948;2023-02-18T07:42:02;98739.13;;;6.98;63.99
41467;BME280;27205;53.690;19.948;2023-02-18T07:47:07;98752.73;;;7.05;64.32
41467;BME280;27205;53.690;19.948;2023-02-18T07:52:14;98742.94;;;7.12;63.80
41467;BME280;27205;53.690;19.948;2023-02-18T07:57:17;98751.81;;;7.16;63.57
41467;BME280;27205;53.690;19.948;2023-02-18T08:02:22;98772.69;;;7.18;63.03
41467;BME280;27205;53.690;19.948;2023-02-18T08:07:26;98787.96;;;7.16;62.42
41467;BME280;27205;53.690;19.948;2023-02-18T08:12:30;98791.39;;;7.19;62.55
41467;BME280;27205;53.690;19.948;2023-02-18T08:17:33;98796.46;;;7.25;62.35
41467;BME280;27205;53.690;19.948;2023-02-18T08:22:41;98783.82;;;7.29;62.11
41467;BME280;27205;53.690;19.948;2023-02-18T08:27:45;98801.05;;;7.29;61.65
41467;BME280;27205;53.690;19.948;2023-02-18T08:32:48;98819.57;;;7.32;61.44
41467;BME280;27205;53.690;19.948;2023-02-18T08:37:52;98808.05;;;7.34;60.29
41467;BME280;27205;53.690;19.948;2023-02-18T08:42:56;98797.98;;;7.41;60.18
41467;BME280;27205;53.690;19.948;2023-02-18T08:48:00;98809.23;;;7.46;60.04
41467;BME280;27205;53.690;19.948;2023-02-18T08:53:22;98794.76;;;7.49;59.83
41467;BME280;27205;53.690;19.948;2023-02-18T08:58:25;98814.02;;;7.50;59.95
41467;BME280;27205;53.690;19.948;2023-02-18T09:03:29;98820.18;;;7.67;59.28
41467;BME280;27205;53.690;19.948;2023-02-18T09:08:32;98809.16;;;7.83;59.49
41467;BME280;27205;53.690;19.948;2023-02-18T09:13:36;98818.91;;;7.96;59.33
41467;BME280;27205;53.690;19.948;2023-02-18T09:18:40;98832.42;;;8.04;58.20
41467;BME280;27205;53.690;19.948;2023-02-18T09:23:44;98831.95;;;8.02;57.75
41467;BME280;27205;53.690;19.948;2023-02-18T09:28:49;98838.62;;;8.04;58.34
41467;BME280;27205;53.690;19.948;2023-02-18T09:33:58;98842.67;;;8.06;57.72
41467;BME280;27205;53.690;19.948;2023-02-18T09:39:02;98861.37;;;8.06;57.71
41467;BME280;27205;53.690;19.948;2023-02-18T09:49:24;98850.10;;;8.17;56.89
41467;BME280;27205;53.690;19.948;2023-02-18T09:54:28;98865.65;;;8.34;56.57
41467;BME280;27205;53.690;19.948;2023-02-18T09:59:32;98864.34;;;8.39;56.64
41467;BME280;27205;53.690;19.948;2023-02-18T10:04:40;98890.35;;;8.38;55.90
41467;BME280;27205;53.690;19.948;2023-02-18T10:09:45;98884.27;;;8.31;55.80
41467;BME280;27205;53.690;19.948;2023-02-18T10:14:56;98880.48;;;8.23;56.01
41467;BME280;27205;53.690;19.948;2023-02-18T10:20:02;98877.19;;;8.23;56.58
41467;BME280;27205;53.690;19.948;2023-02-18T10:25:17;98880.90;;;8.19;56.43
41467;BME280;27205;53.690;19.948;2023-02-18T10:30:30;98881.40;;;8.14;56.59
41467;BME280;27205;53.690;19.948;2023-02-18T10:41:10;98884.13;;;8.24;56.27
41467;BME280;27205;53.690;19.948;2023-02-18T10:46:24;98891.35;;;8.19;56.41
41467;BME280;27205;53.690;19.948;2023-02-18T10:51:34;98887.77;;;8.25;56.26
41467;BME280;27205;53.690;19.948;2023-02-18T10:56:47;98872.44;;;8.43;55.88
41467;BME280;27205;53.690;19.948;2023-02-18T11:02:01;98879.89;;;8.52;55.93
41467;BME280;27205;53.690;19.948;2023-02-18T11:07:11;98879.88;;;8.51;56.03
41467;BME280;27205;53.690;19.948;2023-02-18T11:12:25;98877.69;;;8.43;55.65
41467;BME280;27205;53.690;19.948;2023-02-18T11:17:32;98887.67;;;8.32;55.78
41467;BME280;27205;53.690;19.948;2023-02-18T11:22:36;98884.34;;;8.32;55.80
41467;BME280;27205;53.690;19.948;2023-02-18T11:27:48;98887.25;;;8.38;55.65
41467;BME280;27205;53.690;19.948;2023-02-18T11:32:56;98881.80;;;8.22;55.77
41467;BME280;27205;53.690;19.948;2023-02-18T11:38:03;98895.52;;;8.09;55.67
41467;BME280;27205;53.690;19.948;2023-02-18T11:43:19;98870.27;;;8.12;55.86
41467;BME280;27205;53.690;19.948;2023-02-18T11:48:23;98871.18;;;8.26;55.70
41467;BME280;27205;53.690;19.948;2023-02-18T11:53:32;98862.45;;;8.50;55.44
41467;BME280;27205;53.690;19.948;2023-02-18T11:58:42;98865.31;;;8.73;55.06
41467;BME280;27205;53.690;19.948;2023-02-18T12:04:07;98845.45;;;8.74;54.74
41467;BME280;27205;53.690;19.948;2023-02-18T12:14:36;98860.13;;;8.60;54.43
41467;BME280;27205;53.690;19.948;2023-02-18T12:20:05;98850.39;;;8.39;54.35
41467;BME280;27205;53.690;19.948;2023-02-18T13:13:09;98799.88;;;7.90;54.89
41467;BME280;27205;53.690;19.948;2023-02-18T13:18:23;98799.36;;;7.88;55.07
41467;BME280;27205;53.690;19.948;2023-02-18T13:23:35;98801.88;;;7.82;55.31
41467;BME280;27205;53.690;19.948;2023-02-18T13:34:30;98794.15;;;7.94;56.10
41467;BME280;27205;53.690;19.948;2023-02-18T13:39:35;98796.38;;;7.96;56.09
41467;BME280;27205;53.690;19.948;2023-02-18T13:49:50;98782.30;;;7.91;55.67
41467;BME280;27205;53.690;19.948;2023-02-18T13:54:55;98785.22;;;7.89;55.20
41467;BME280;27205;53.690;19.948;2023-02-18T14:00:03;98785.45;;;7.88;54.65
41467;BME280;27205;53.690;19.948;2023-02-18T14:15:54;98781.09;;;7.82;55.34
41467;BME280;27205;53.690;19.948;2023-02-18T14:21:19;98772.30;;;7.81;55.71
41467;BME280;27205;53.690;19.948;2023-02-18T14:26:35;98774.02;;;7.75;55.87
41467;BME280;27205;53.690;19.948;2023-02-18T14:31:46;98772.69;;;7.73;56.00
41467;BME280;27205;53.690;19.948;2023-02-18T14:52:53;98778.18;;;7.48;56.89
41467;BME280;27205;53.690;19.948;2023-02-18T14:58:00;98787.82;;;7.43;56.73
41467;BME280;27205;53.690;19.948;2023-02-18T15:03:12;98780.34;;;7.36;56.75
41467;BME280;27205;53.690;19.948;2023-02-18T15:08:22;98766.98;;;7.33;57.09
41467;BME280;27205;53.690;19.948;2023-02-18T15:13:31;98760.81;;;7.29;57.29
41467;BME280;27205;53.690;19.948;2023-02-18T15:18:39;98765.19;;;7.22;57.59
41467;BME280;27205;53.690;19.948;2023-02-18T15:23:42;98752.46;;;7.17;57.99
41467;BME280;27205;53.690;19.948;2023-02-18T15:29:05;98758.63;;;7.12;58.30
41467;BME280;27205;53.690;19.948;2023-02-18T15:34:36;98767.14;;;7.04;58.38
41467;BME280;27205;53.690;19.948;2023-02-18T15:39:41;98770.30;;;6.96;58.72
41467;BME280;27205;53.690;19.948;2023-02-18T15:44:47;98766.52;;;6.90;58.94
41467;BME280;27205;53.690;19.948;2023-02-18T15:49:55;98763.75;;;6.82;59.34
41467;BME280;27205;53.690;19.948;2023-02-18T15:55:05;98764.66;;;6.75;59.67
41467;BME280;27205;53.690;19.948;2023-02-18T16:00:29;98777.77;;;6.70;59.98
41467;BME280;27205;53.690;19.948;2023-02-18T16:05:36;98780.33;;;6.66;60.49
41467;BME280;27205;53.690;19.948;2023-02-18T16:10:47;98786.50;;;6.63;60.68
41467;BME280;27205;53.690;19.948;2023-02-18T16:15:51;98782.05;;;6.60;61.22
41467;BME280;27205;53.690;19.948;2023-02-18T16:20:57;98778.11;;;6.53;61.48
41467;BME280;27205;53.690;19.948;2023-02-18T16:26:22;98773.83;;;6.47;61.69
41467;BME280;27205;53.690;19.948;2023-02-18T16:31:25;98784.41;;;6.39;62.05
41467;BME280;27205;53.690;19.948;2023-02-18T16:36:30;98789.14;;;6.32;62.32
41467;BME280;27205;53.690;19.948;2023-02-18T16:41:34;98789.08;;;6.26;62.71
41467;BME280;27205;53.690;19.948;2023-02-18T16:46:38;98788.66;;;6.20;63.18
41467;BME280;27205;53.690;19.948;2023-02-18T16:51:41;98797.36;;;6.20;63.50
41467;BME280;27205;53.690;19.948;2023-02-18T16:56:46;98805.52;;;6.17;64.13
41467;BME280;27205;53.690;19.948;2023-02-18T17:01:50;98806.42;;;6.18;64.73
41467;BME280;27205;53.690;19.948;2023-02-18T17:06:54;98812.65;;;6.12;65.37
41467;BME280;27205;53.690;19.948;2023-02-18T17:11:57;98812.23;;;6.05;66.13
41467;BME280;27205;53.690;19.948;2023-02-18T17:17:08;98821.49;;;5.99;67.00
41467;BME280;27205;53.690;19.948;2023-02-18T17:22:14;98829.13;;;5.93;67.41
41467;BME280;27205;53.690;19.948;2023-02-18T17:27:17;98831.26;;;5.88;67.97
41467;BME280;27205;53.690;19.948;2023-02-18T17:32:21;98838.33;;;5.83;68.61
41467;BME280;27205;53.690;19.948;2023-02-18T17:37:24;98836.73;;;5.74;68.92
41467;BME280;27205;53.690;19.948;2023-02-18T17:42:28;98840.36;;;5.67;69.33
41467;BME280;27205;53.690;19.948;2023-02-18T17:47:33;98843.23;;;5.57;69.90
41467;BME280;27205;53.690;19.948;2023-02-18T17:52:38;98858.94;;;5.52;69.79
41467;BME280;27205;53.690;19.948;2023-02-18T17:57:42;98872.92;;;5.45;70.19
41467;BME280;27205;53.690;19.948;2023-02-18T18:02:47;98886.27;;;5.36;70.53
41467;BME280;27205;53.690;19.948;2023-02-18T18:07:51;98888.87;;;5.31;70.90
41467;BME280;27205;53.690;19.948;2023-02-18T18:12:55;98894.08;;;5.25;70.93
41467;BME280;27205;53.690;19.948;2023-02-18T18:17:59;98902.27;;;5.21;71.30
41467;BME280;27205;53.690;19.948;2023-02-18T18:23:04;98917.08;;;5.18;71.47
41467;BME280;27205;53.690;19.948;2023-02-18T18:28:08;98913.66;;;5.10;71.74
41467;BME280;27205;53.690;19.948;2023-02-18T18:33:21;98919.10;;;4.99;71.82
41467;BME280;27205;53.690;19.948;2023-02-18T18:38:26;98932.70;;;4.87;72.16
41467;BME280;27205;53.690;19.948;2023-02-18T18:43:31;98934.66;;;4.81;72.13
41467;BME280;27205;53.690;19.948;2023-02-18T18:48:35;98940.11;;;4.74;72.49
41467;BME280;27205;53.690;19.948;2023-02-18T18:53:39;98945.94;;;4.66;72.69
41467;BME280;27205;53.690;19.948;2023-02-18T18:58:42;98946.14;;;4.65;72.96
41467;BME280;27205;53.690;19.948;2023-02-18T19:03:46;98957.79;;;4.68;73.03
41467;BME280;27205;53.690;19.948;2023-02-18T19:08:50;98962.74;;;4.65;73.04
41467;BME280;27205;53.690;19.948;2023-02-18T19:13:54;98962.45;;;4.59;73.14
41467;BME280;27205;53.690;19.948;2023-02-18T19:18:57;98962.67;;;4.52;73.20
41467;BME280;27205;53.690;19.948;2023-02-18T19:24:01;98972.53;;;4.43;73.44
41467;BME280;27205;53.690;19.948;2023-02-18T19:29:04;98973.50;;;4.40;73.76
41467;BME280;27205;53.690;19.948;2023-02-18T19:34:08;98979.55;;;4.37;74.14
41467;BME280;27205;53.690;19.948;2023-02-18T19:39:11;98970.26;;;4.38;74.12
41467;BME280;27205;53.690;19.948;2023-02-18T19:44:15;98977.79;;;4.36;74.40
41467;BME280;27205;53.690;19.948;2023-02-18T19:49:19;98980.09;;;4.34;74.65
41467;BME280;27205;53.690;19.948;2023-02-18T19:54:22;98976.48;;;4.31;74.89
41467;BME280;27205;53.690;19.948;2023-02-18T19:59:28;98984.94;;;4.27;75.21
41467;BME280;27205;53.690;19.948;2023-02-18T20:04:33;98992.02;;;4.24;75.42
41467;BME280;27205;53.690;19.948;2023-02-18T20:09:37;98996.45;;;4.18;75.81
41467;BME280;27205;53.690;19.948;2023-02-18T20:14:41;98984.08;;;4.12;76.15
41467;BME280;27205;53.690;19.948;2023-02-18T20:19:46;98995.57;;;4.07;76.46
41467;BME280;27205;53.690;19.948;2023-02-18T20:24:50;99012.84;;;4.03;77.25
41467;BME280;27205;53.690;19.948;2023-02-18T20:29:53;99023.89;;;4.05;77.60
41467;BME280;27205;53.690;19.948;2023-02-18T20:34:57;99020.95;;;3.98;77.56
41467;BME280;27205;53.690;19.948;2023-02-18T20:40:01;99022.78;;;3.92;77.37
41467;BME280;27205;53.690;19.948;2023-02-18T20:45:05;99034.04;;;3.86;77.53
41467;BME280;27205;53.690;19.948;2023-02-18T20:50:08;99031.83;;;3.87;77.86
41467;BME280;27205;53.690;19.948;2023-02-18T20:55:12;99038.09;;;3.88;78.02
41467;BME280;27205;53.690;19.948;2023-02-18T21:00:16;99047.60;;;3.92;78.08
41467;BME280;27205;53.690;19.948;2023-02-18T21:05:19;99059.64;;;3.97;78.04
41467;BME280;27205;53.690;19.948;2023-02-18T21:10:23;99069.44;;;3.99;78.30
41467;BME280;27205;53.690;19.948;2023-02-18T21:15:27;99076.82;;;4.01;78.44
41467;BME280;27205;53.690;19.948;2023-02-18T21:20:30;99078.85;;;4.01;78.25
41467;BME280;27205;53.690;19.948;2023-02-18T21:25:35;99072.39;;;3.93;78.16
41467;BME280;27205;53.690;19.948;2023-02-18T21:30:43;99088.66;;;3.82;78.32
41467;BME280;27205;53.690;19.948;2023-02-18T21:35:46;99082.02;;;3.70;78.30
41467;BME280;27205;53.690;19.948;2023-02-18T21:40:51;99091.69;;;3.59;78.50
41467;BME280;27205;53.690;19.948;2023-02-18T21:46:07;99100.65;;;3.53;78.72
41467;BME280;27205;53.690;19.948;2023-02-18T21:51:11;99114.09;;;3.51;79.18
41467;BME280;27205;53.690;19.948;2023-02-18T21:56:35;99107.70;;;3.53;79.48
41467;BME280;27205;53.690;19.948;2023-02-18T22:01:38;99105.52;;;3.56;79.25
41467;BME280;27205;53.690;19.948;2023-02-18T22:06:44;99099.16;;;3.55;79.33
41467;BME280;27205;53.690;19.948;2023-02-18T22:11:47;99099.34;;;3.50;79.42
41467;BME280;27205;53.690;19.948;2023-02-18T22:16:51;99102.04;;;3.46;79.45
41467;BME280;27205;53.690;19.948;2023-02-18T22:21:55;99093.23;;;3.42;79.53
41467;BME280;27205;53.690;19.948;2023-02-18T22:26:59;99095.80;;;3.40;79.35
41467;BME280;27205;53.690;19.948;2023-02-18T22:32:03;99104.45;;;3.28;79.32
41467;BME280;27205;53.690;19.948;2023-02-18T22:37:07;99117.13;;;3.17;79.19
41467;BME280;27205;53.690;19.948;2023-02-18T22:42:11;99134.67;;;3.08;79.63
41467;BME280;27205;53.690;19.948;2023-02-18T22:47:15;99122.55;;;3.00;79.67
41467;BME280;27205;53.690;19.948;2023-02-18T22:52:18;99121.59;;;2.90;79.82
41467;BME280;27205;53.690;19.948;2023-02-18T22:57:22;99122.40;;;2.85;80.08
41467;BME280;27205;53.690;19.948;2023-02-18T23:02:26;99126.73;;;2.78;80.08
41467;BME280;27205;53.690;19.948;2023-02-18T23:07:29;99116.20;;;2.68;80.24
41467;BME280;27205;53.690;19.948;2023-02-18T23:12:33;99123.58;;;2.63;80.46
41467;BME280;27205;53.690;19.948;2023-02-18T23:17:37;99123.07;;;2.60;80.61
41467;BME280;27205;53.690;19.948;2023-02-18T23:22:40;99122.87;;;2.56;80.62
41467;BME280;27205;53.690;19.948;2023-02-18T23:27:44;99131.11;;;2.51;80.76
41467;BME280;27205;53.690;19.948;2023-02-18T23:32:48;99125.11;;;2.49;81.08
41467;BME280;27205;53.690;19.948;2023-02-18T23:37:51;99123.63;;;2.49;81.34
41467;BME280;27205;53.690;19.948;2023-02-18T23:43:07;99134.33;;;2.47;81.15
41467;BME280;27205;53.690;19.948;2023-02-18T23:48:11;99140.67;;;2.43;81.12
41467;BME280;27205;53.690;19.948;2023-02-18T23:53:14;99131.63;;;2.36;80.93
41467;BME280;27205;53.690;19.948;2023-02-18T23:58:18;99127.69;;;2.30;81.27
